Time;durP1;ratioP1;P1;durP2;ratioP2;P2;SDS_P1;SDS_P2;PMS_P1;PMS_P2;Temp;Humidity;BMP_temperature;BMP_pressure;BME280_temperature;BME280_humidity;BME280_pressure;Samples;Min_cycle;Max_cycle;Signal;HPM_P1;HPM_P2
2023/01/05 00:00:31;;;;;;;1.30;0.70;;;;;;;6.97;88.14;96239.06;105609;1302;24399;-81
2023/01/05 00:03:22;;;;;;;0.80;0.50;;;;;;;6.92;88.37;96238.45;105541;1288;22512;-81
2023/01/05 00:05:53;;;;;;;0.70;0.60;;;;;;;6.89;88.77;96225.14;105542;1280;22470;-81
2023/01/05 00:08:24;;;;;;;0.10;0.10;;;;;;;6.88;88.82;96232.73;105634;1300;25391;-81
2023/01/05 00:22:33;;;;;;;0.50;0.30;;;;;;;6.97;89.70;96212.61;105381;1303;24990;-81
2023/01/05 00:25:06;;;;;;;0.50;0.50;;;;;;;7.01;89.49;96209.27;105496;1287;22511;-81
2023/01/05 00:27:38;;;;;;;0.40;0.40;;;;;;;7.02;89.27;96202.42;105529;1297;26014;-81
2023/01/05 00:30:11;;;;;;;0.50;0.50;;;;;;;7.08;89.18;96187.58;105679;1302;22677;-81
2023/01/05 00:32:43;;;;;;;0.80;0.50;;;;;;;7.13;88.90;96193.45;105667;1286;22498;-80
2023/01/05 00:35:16;;;;;;;0.50;0.30;;;;;;;7.12;88.73;96195.25;105658;1293;22529;-81
2023/01/05 00:37:48;;;;;;;0.50;0.30;;;;;;;7.10;88.91;96203.64;105620;1288;23740;-81
2023/01/05 00:40:21;;;;;;;0.30;0.20;;;;;;;7.07;88.99;96214.34;105611;1302;22466;-81
2023/01/05 00:42:51;;;;;;;2.40;0.30;;;;;;;7.08;89.21;96213.98;105610;1293;22596;-81
2023/01/05 00:45:22;;;;;;;0.50;0.40;;;;;;;7.11;89.15;96203.74;105607;1302;25284;-81
2023/01/05 00:47:54;;;;;;;1.40;0.30;;;;;;;7.14;89.05;96218.23;105601;1294;22516;-81
2023/01/05 00:50:25;;;;;;;0.20;0.20;;;;;;;7.14;89.06;96218.45;105536;1278;25402;-81
2023/01/05 00:52:58;;;;;;;0.60;0.30;;;;;;;7.17;89.02;96207.52;105531;1302;22645;-81
2023/01/05 00:55:29;;;;;;;0.60;0.30;;;;;;;7.15;88.96;96186.70;105527;1304;22468;-80
2023/01/05 00:58:00;;;;;;;0.50;0.40;;;;;;;7.15;88.89;96186.12;105333;1293;24474;-81
2023/01/05 01:00:32;;;;;;;1.00;0.50;;;;;;;7.17;89.00;96184.65;105635;1302;22447;-81
2023/01/05 01:03:05;;;;;;;0.30;0.30;;;;;;;7.19;88.82;96189.02;105648;1293;22530;-81
2023/01/05 01:05:37;;;;;;;0.20;0.20;;;;;;;7.17;88.73;96164.19;105630;1302;22513;-80
2023/01/05 01:08:07;;;;;;;0.90;0.70;;;;;;;7.21;88.68;96163.45;105608;1295;23987;-80
2023/01/05 01:10:40;;;;;;;0.80;0.40;;;;;;;7.23;88.39;96161.86;105563;1305;22523;-81
2023/01/05 01:13:12;;;;;;;0.70;0.40;;;;;;;7.25;88.31;96149.98;105549;1274;22826;-81
2023/01/05 01:15:45;;;;;;;0.10;0.10;;;;;;;7.31;88.24;96155.05;105533;1288;22492;-81
2023/01/05 01:18:17;;;;;;;0.60;0.40;;;;;;;7.34;87.92;96154.88;105370;1303;50273;-81
2023/01/05 01:20:48;;;;;;;0.60;0.40;;;;;;;7.34;87.85;96146.34;105568;1297;22473;-80
2023/01/05 01:23:19;;;;;;;0.80;0.30;;;;;;;7.39;87.53;96145.67;105531;1306;25051;-80
2023/01/05 01:25:50;;;;;;;0.90;0.40;;;;;;;7.46;87.39;96132.95;105514;1305;22503;-81
2023/01/05 01:28:23;;;;;;;0.60;0.30;;;;;;;7.51;87.06;96113.58;105581;1282;67273;-81
2023/01/05 01:30:55;;;;;;;0.50;0.40;;;;;;;7.55;86.75;96118.87;105714;1303;22509;-81
2023/01/05 01:33:26;;;;;;;0.40;0.30;;;;;;;7.58;86.50;96119.44;105778;1278;23113;-81
2023/01/05 01:35:57;;;;;;;0.60;0.30;;;;;;;7.59;86.04;96119.11;105745;1289;22450;-80
2023/01/05 01:38:28;;;;;;;0.30;0.20;;;;;;;7.61;85.90;96120.23;105737;1291;44058;-80
2023/01/05 01:40:59;;;;;;;0.20;0.20;;;;;;;7.60;85.90;96111.10;105741;1294;22557;-80
2023/01/05 01:43:46;;;;;;;0.70;0.40;;;;;;;7.62;85.80;96108.94;105776;1285;22468;-81
2023/01/05 01:46:18;;;;;;;0.70;0.30;;;;;;;7.62;85.60;96093.64;105778;1301;22587;-80
2023/01/05 01:48:56;;;;;;;0.50;0.30;;;;;;;7.64;85.53;96095.95;105678;1303;55434;-81
2023/01/05 01:51:32;;;;;;;0.60;0.30;;;;;;;7.65;85.28;96090.92;105755;1295;25390;-80
2023/01/05 01:54:07;;;;;;;0.50;0.10;;;;;;;7.66;85.13;96086.01;105759;1288;22621;-80
2023/01/05 01:56:42;;;;;;;0.20;0.20;;;;;;;7.64;85.12;96079.59;105771;1286;22513;-80
2023/01/05 01:59:13;;;;;;;0.30;0.20;;;;;;;7.59;85.09;96083.67;105617;1281;45778;-80
2023/01/05 02:01:44;;;;;;;1.30;0.40;;;;;;;7.57;85.05;96081.25;105577;1293;22504;-81
2023/01/05 02:04:16;;;;;;;0.60;0.30;;;;;;;7.57;85.29;96084.25;105612;1288;22558;-80
2023/01/05 02:06:47;;;;;;;0.40;0.30;;;;;;;7.56;85.19;96067.95;105653;1303;22501;-81
2023/01/05 02:09:19;;;;;;;0.30;0.20;;;;;;;7.54;85.44;96069.08;105587;1302;66050;-80
2023/01/05 02:12:04;;;;;;;0.40;0.40;;;;;;;7.49;85.46;96070.33;105614;1303;22467;-81
2023/01/05 02:14:45;;;;;;;0.20;0.20;;;;;;;7.47;85.68;96072.83;105643;1302;22475;-81
2023/01/05 02:17:29;;;;;;;0.50;0.40;;;;;;;7.44;85.81;96066.38;105580;1302;22516;-80
2023/01/05 02:20:35;;;;;;;0.20;0.20;;;;;;;7.44;86.06;96072.34;105556;1277;22523;-81
2023/01/05 02:23:47;;;;;;;0.40;0.20;;;;;;;7.50;86.17;96067.10;105605;1302;24234;-81
2023/01/05 02:26:58;;;;;;;0.70;0.40;;;;;;;7.60;86.02;96076.02;105587;1292;25371;-81
2023/01/05 02:29:59;;;;;;;0.40;0.30;;;;;;;7.61;85.93;96063.98;105590;1296;37986;-80
2023/01/05 02:32:36;;;;;;;0.20;0.20;;;;;;;7.62;85.86;96044.52;105608;1297;22466;-81
2023/01/05 02:35:16;;;;;;;0.20;0.20;;;;;;;7.65;86.03;96046.71;105635;1293;22436;-81
2023/01/05 02:37:59;;;;;;;1.10;0.30;;;;;;;7.66;86.02;96048.50;105502;1305;66794;-81
2023/01/05 02:40:36;;;;;;;0.70;0.60;;;;;;;7.67;86.05;96032.08;105566;1303;22468;-81
2023/01/05 02:43:09;;;;;;;0.40;0.30;;;;;;;7.78;85.86;96052.86;105613;1302;25490;-81
2023/01/05 02:45:40;;;;;;;0.60;0.40;;;;;;;7.83;85.75;96037.46;105574;1293;24237;-81
2023/01/05 02:48:11;;;;;;;0.30;0.20;;;;;;;7.86;85.54;96044.41;105513;1300;62535;-81
2023/01/05 02:50:47;;;;;;;0.20;0.20;;;;;;;7.89;85.57;96040.70;105619;1301;22508;-81
2023/01/05 02:53:23;;;;;;;0.60;0.60;;;;;;;7.98;85.32;96040.69;105579;1302;22590;-81
2023/01/05 02:56:01;;;;;;;0.30;0.30;;;;;;;8.03;85.15;96024.13;105619;1302;22573;-81
2023/01/05 02:58:36;;;;;;;0.30;0.20;;;;;;;8.10;84.41;96011.55;105586;1303;41570;-81
2023/01/05 03:01:14;;;;;;;0.70;0.20;;;;;;;8.15;84.01;96010.30;105640;1293;25468;-81
2023/01/05 03:03:52;;;;;;;0.50;0.40;;;;;;;8.14;83.92;96023.08;105606;1287;22482;-81
2023/01/05 03:06:31;;;;;;;1.00;0.60;;;;;;;8.16;83.80;96005.11;105628;1289;23905;-81
2023/01/05 03:09:04;;;;;;;0.60;0.30;;;;;;;8.16;83.81;96013.93;105640;1303;33172;-81
2023/01/05 03:14:36;;;;;;;0.20;0.20;;;;;;;8.19;83.47;96029.93;105633;1287;22555;-81
2023/01/05 03:17:13;;;;;;;0.20;0.20;;;;;;;8.16;83.50;96018.00;105634;1295;22520;-81
2023/01/05 03:19:46;;;;;;;0.30;0.30;;;;;;;8.16;83.33;96016.26;105618;1301;25567;-80
2023/01/05 03:36:52;;;;;;;0.30;0.30;;;;;;;8.14;82.76;95980.16;105653;1303;22672;-82
2023/01/05 03:39:26;;;;;;;0.40;0.20;;;;;;;8.17;82.52;95989.23;105548;1301;51273;-81
2023/01/05 03:41:58;;;;;;;0.30;0.10;;;;;;;8.15;82.52;95995.77;105629;1292;22643;-82
2023/01/05 03:44:34;;;;;;;0.40;0.20;;;;;;;8.18;82.21;96000.20;105579;1289;22588;-81
2023/01/05 03:47:06;;;;;;;0.30;0.30;;;;;;;8.20;82.22;96003.98;105594;1284;23295;-82
2023/01/05 03:49:37;;;;;;;0.60;0.20;;;;;;;8.16;82.12;95995.60;105587;1308;55901;-82
2023/01/05 03:52:11;;;;;;;0.10;0.10;;;;;;;8.16;82.28;95989.96;105614;1303;22476;-82
2023/01/05 03:54:42;;;;;;;0.20;0.20;;;;;;;8.17;82.22;95986.86;105636;1286;22518;-82
2023/01/05 03:57:13;;;;;;;0.20;0.20;;;;;;;8.16;82.22;95992.34;105623;1299;22501;-82
2023/01/05 03:59:44;;;;;;;0.20;0.20;;;;;;;8.17;82.20;95986.85;105530;1300;43626;-81
2023/01/05 04:02:17;;;;;;;0.30;0.20;;;;;;;8.20;81.92;95981.86;105627;1279;24255;-82
2023/01/05 04:04:49;;;;;;;0.10;0.10;;;;;;;8.22;81.68;95991.65;105607;1290;22527;-82
2023/01/05 04:07:21;;;;;;;0.10;0.10;;;;;;;8.22;81.60;95980.20;105568;1306;22634;-82
2023/01/05 04:09:52;;;;;;;0.20;0.20;;;;;;;8.24;81.43;95987.52;105605;1304;22483;-82
2023/01/05 04:12:23;;;;;;;0.10;0.00;;;;;;;8.30;81.15;95985.66;105572;1293;22456;-82
2023/01/05 04:14:54;;;;;;;0.80;0.20;;;;;;;8.34;80.80;95966.33;105580;1292;22565;-82
2023/01/05 04:17:25;;;;;;;0.40;0.30;;;;;;;8.38;80.61;95976.49;105543;1303;58264;-82
2023/01/05 04:19:59;;;;;;;0.40;0.30;;;;;;;8.33;80.44;95970.17;105595;1294;22468;-82
2023/01/05 04:22:30;;;;;;;0.10;0.10;;;;;;;8.34;80.21;95967.01;105587;1304;22594;-82
2023/01/05 04:25:01;;;;;;;1.30;0.20;;;;;;;8.39;80.11;95977.27;105575;1300;22461;-82
2023/01/05 04:27:33;;;;;;;0.20;0.20;;;;;;;8.43;79.91;95973.27;105549;1304;40277;-82
2023/01/05 04:30:04;;;;;;;1.00;0.30;;;;;;;8.42;79.91;95965.30;105776;1296;22501;-82
2023/01/05 04:32:36;;;;;;;0.50;0.20;;;;;;;8.39;79.78;95968.98;105786;1295;22471;-82
2023/01/05 04:35:08;;;;;;;0.70;0.20;;;;;;;8.41;79.59;95949.19;105758;1304;24366;-82
2023/01/05 04:37:42;;;;;;;0.30;0.30;;;;;;;8.43;79.44;95946.58;105727;1304;42304;-83
2023/01/05 04:40:13;;;;;;;0.30;0.10;;;;;;;8.46;79.10;95952.80;105444;1304;22618;-82
2023/01/05 04:42:46;;;;;;;0.10;0.10;;;;;;;8.52;78.74;95952.20;105508;1293;22518;-82
2023/01/05 04:45:20;;;;;;;0.20;0.20;;;;;;;8.50;78.73;95955.08;105419;1305;22484;-82
2023/01/05 04:47:52;;;;;;;0.70;0.20;;;;;;;8.49;78.78;95972.54;105516;1289;34803;-82
2023/01/05 04:50:24;;;;;;;0.30;0.30;;;;;;;8.49;78.74;95961.60;105492;1292;24265;-81
2023/01/05 04:52:55;;;;;;;1.80;0.10;;;;;;;8.48;78.76;95960.49;105556;1287;22464;-82
2023/01/05 04:55:27;;;;;;;0.50;0.10;;;;;;;8.51;78.50;95946.14;105543;1288;22505;-81
2023/01/05 04:57:58;;;;;;;0.30;0.20;;;;;;;8.53;78.49;95950.49;105438;1292;67528;-81
2023/01/05 05:00:31;;;;;;;0.20;0.20;;;;;;;8.51;78.28;95947.72;105583;1303;22680;-82
2023/01/05 05:03:03;;;;;;;0.20;0.20;;;;;;;8.55;78.31;95960.10;105603;1303;22469;-82
2023/01/05 05:05:34;;;;;;;0.90;0.20;;;;;;;8.54;78.31;95955.23;105581;1303;23739;-82
2023/01/05 05:08:05;;;;;;;0.80;0.30;;;;;;;8.56;78.03;95952.95;105600;1293;57896;-82
2023/01/05 05:10:37;;;;;;;9.30;3.20;;;;;;;8.60;78.07;95963.23;105575;1297;22480;-81
2023/01/05 05:13:08;;;;;;;9.00;2.30;;;;;;;8.60;77.94;95957.19;105591;1302;22529;-81
2023/01/05 05:15:39;;;;;;;24.80;9.60;;;;;;;8.59;78.22;95961.11;105533;1303;22479;-81
2023/01/05 05:18:11;;;;;;;13.20;4.70;;;;;;;8.52;78.54;95965.58;105501;1304;53265;-82
2023/01/05 05:20:47;;;;;;;1.50;0.40;;;;;;;8.47;78.95;95959.18;105566;1303;25272;-83
2023/01/05 05:23:18;;;;;;;3.30;0.90;;;;;;;8.44;79.21;95955.25;105606;1284;23849;-81
2023/01/05 05:25:52;;;;;;;1.00;0.40;;;;;;;8.37;79.78;95950.45;105570;1302;22482;-82
2023/01/05 05:28:26;;;;;;;0.30;0.20;;;;;;;8.28;80.16;95946.34;105490;1303;72158;-81
2023/01/05 05:31:01;;;;;;;2.20;0.60;;;;;;;8.24;80.63;95937.72;105587;1290;25428;-81
2023/01/05 05:33:32;;;;;;;3.90;1.50;;;;;;;8.22;80.85;95953.21;105590;1295;23842;-82
2023/01/05 05:36:03;;;;;;;1.60;0.50;;;;;;;8.17;81.21;95942.65;105592;1303;22749;-81
2023/01/05 05:38:34;;;;;;;3.50;1.50;;;;;;;8.19;81.55;95952.35;105547;1302;42424;-82
2023/01/05 05:41:06;;;;;;;0.00;0.00;;;;;;;8.20;81.67;95942.98;105578;1295;25360;-81
2023/01/05 05:43:37;;;;;;;9.50;3.70;;;;;;;8.19;81.92;95939.36;105553;1285;23046;-81
2023/01/05 05:46:09;;;;;;;23.90;8.00;;;;;;;8.14;82.06;95940.86;105541;1302;23775;-82
2023/01/05 05:48:40;;;;;;;17.90;4.80;;;;;;;8.09;82.15;95937.55;105516;1302;41538;-81
2023/01/05 05:51:11;;;;;;;6.40;2.10;;;;;;;8.07;82.35;95936.58;105596;1302;24264;-81
2023/01/05 05:53:42;;;;;;;1.00;0.10;;;;;;;8.09;82.17;95932.63;105569;1300;22565;-81
2023/01/05 05:56:14;;;;;;;1.10;0.50;;;;;;;8.06;82.18;95934.31;105571;1300;22513;-81
2023/01/05 05:58:47;;;;;;;6.20;1.60;;;;;;;8.04;82.38;95934.12;105559;1295;67815;-81
2023/01/05 06:01:18;;;;;;;7.10;2.40;;;;;;;8.04;82.40;95942.05;105556;1302;23867;-82
2023/01/05 06:03:50;;;;;;;6.90;2.30;;;;;;;8.00;82.72;95932.81;105587;1303;22554;-81
2023/01/05 06:06:21;;;;;;;5.10;2.50;;;;;;;8.03;82.76;95925.05;105566;1285;24284;-81
2023/01/05 06:08:52;;;;;;;5.50;2.40;;;;;;;8.03;82.68;95921.52;105562;1287;46478;-81
2023/01/05 06:11:26;;;;;;;3.20;1.70;;;;;;;7.99;82.85;95919.58;105609;1302;22673;-81
2023/01/05 06:13:57;;;;;;;0.80;0.50;;;;;;;7.92;83.12;95917.77;105597;1303;22907;-81
2023/01/05 06:16:28;;;;;;;1.20;0.40;;;;;;;7.88;83.63;95914.77;105576;1280;22535;-81
2023/01/05 06:18:59;;;;;;;2.00;0.60;;;;;;;7.82;84.11;95919.09;105551;1302;44148;-81
2023/01/05 06:21:30;;;;;;;3.50;1.10;;;;;;;7.78;84.71;95926.27;105569;1300;22480;-81
2023/01/05 06:24:01;;;;;;;9.50;3.30;;;;;;;7.72;84.96;95925.03;105559;1289;22459;-81
2023/01/05 06:26:33;;;;;;;0.30;0.20;;;;;;;7.69;85.44;95928.80;105531;1302;22606;-82
2023/01/05 06:29:04;;;;;;;1.80;0.50;;;;;;;7.71;86.37;95930.84;105566;1303;39133;-82
2023/01/05 06:31:35;;;;;;;0.60;0.20;;;;;;;7.71;87.21;95929.78;105561;1288;22555;-81
2023/01/05 06:34:06;;;;;;;0.10;0.10;;;;;;;7.70;87.50;95935.23;105580;1291;22484;-82
2023/01/05 06:36:38;;;;;;;0.90;0.80;;;;;;;7.66;87.80;95944.81;105572;1300;22636;-80
2023/01/05 06:39:09;;;;;;;1.20;0.70;;;;;;;7.69;88.26;95937.67;105579;1286;24307;-81
2023/01/05 06:41:41;;;;;;;1.70;0.40;;;;;;;7.67;88.59;95938.27;105592;1279;22479;-82
2023/01/05 06:44:13;;;;;;;2.00;0.60;;;;;;;7.67;89.08;95951.98;105554;1281;22515;-81
2023/01/05 06:46:44;;;;;;;2.10;0.50;;;;;;;7.66;89.42;95973.30;105592;1298;22508;-82
2023/01/05 06:49:16;;;;;;;1.90;0.60;;;;;;;7.63;90.08;95981.31;105498;1302;68404;-82
2023/01/05 06:51:47;;;;;;;1.40;0.70;;;;;;;7.56;90.30;95981.02;105582;1281;23217;-82
2023/01/05 06:54:18;;;;;;;0.40;0.20;;;;;;;7.50;90.41;95976.80;105583;1288;22465;-81
2023/01/05 06:56:49;;;;;;;2.00;0.50;;;;;;;7.45;91.03;95967.65;105585;1302;22557;-81
2023/01/05 06:59:21;;;;;;;1.30;0.40;;;;;;;7.37;91.22;95962.90;105712;1289;57740;-81
2023/01/05 07:01:52;;;;;;;0.80;0.30;;;;;;;7.29;90.62;95958.23;105835;1300;22460;-81
2023/01/05 07:04:23;;;;;;;2.70;0.60;;;;;;;7.25;90.51;95963.70;105803;1292;22472;-81
2023/01/05 07:06:54;;;;;;;0.90;0.20;;;;;;;7.20;91.16;95958.52;105821;1300;23065;-81
2023/01/05 07:09:25;;;;;;;1.10;0.80;;;;;;;7.13;91.62;95958.54;105531;1293;37588;-81
2023/01/05 07:11:57;;;;;;;3.20;1.00;;;;;;;7.04;91.96;95959.91;105534;1303;22502;-81
2023/01/05 07:14:28;;;;;;;0.30;0.30;;;;;;;6.96;92.52;95966.85;105544;1289;22507;-81
2023/01/05 07:16:59;;;;;;;2.00;0.90;;;;;;;6.91;93.25;95965.25;105485;1297;22488;-81
2023/01/05 07:19:30;;;;;;;1.30;0.80;;;;;;;6.87;93.66;95965.72;105352;1304;88162;-81
2023/01/05 07:22:02;;;;;;;1.80;0.90;;;;;;;6.85;94.29;95962.05;105427;1305;22484;-81
2023/01/05 07:24:35;;;;;;;2.70;0.80;;;;;;;6.94;95.02;95958.80;105553;1283;24346;-81
2023/01/05 07:27:07;;;;;;;2.70;0.90;;;;;;;7.10;95.28;95950.39;105554;1304;22704;-81
2023/01/05 07:29:38;;;;;;;1.50;0.90;;;;;;;7.20;94.86;95939.59;105469;1278;36866;-81
2023/01/05 07:32:10;;;;;;;1.40;0.70;;;;;;;7.26;94.68;95934.48;105513;1284;23252;-81
2023/01/05 07:34:41;;;;;;;3.00;0.80;;;;;;;7.35;94.53;95928.63;105529;1292;22481;-81
2023/01/05 07:37:14;;;;;;;2.70;1.40;;;;;;;7.47;94.56;95922.13;105530;1304;22552;-82
2023/01/05 07:39:46;;;;;;;2.50;1.10;;;;;;;7.60;94.33;95932.47;105525;1302;34901;-81
2023/01/05 07:42:17;;;;;;;5.00;1.20;;;;;;;7.71;94.31;95932.37;105596;1294;24232;-82
2023/01/05 07:44:48;;;;;;;3.20;0.70;;;;;;;7.72;93.94;95933.41;105536;1303;22466;-82
2023/01/05 07:47:22;;;;;;;1.40;0.70;;;;;;;7.72;93.74;95931.95;105556;1301;22467;-81
2023/01/05 07:49:56;;;;;;;2.30;0.90;;;;;;;7.79;93.81;95933.27;105594;1303;23709;-81
2023/01/05 07:52:31;;;;;;;4.50;1.30;;;;;;;7.80;93.61;95932.80;105576;1302;23243;-81
2023/01/05 07:55:03;;;;;;;3.80;1.10;;;;;;;7.81;93.41;95933.31;105622;1278;23213;-82
2023/01/05 07:57:36;;;;;;;2.70;0.70;;;;;;;7.84;93.26;95930.90;105569;1293;38158;-82
2023/01/05 08:00:12;;;;;;;2.10;0.90;;;;;;;7.90;92.93;95947.59;105567;1302;22498;-81
2023/01/05 08:02:44;;;;;;;2.00;0.80;;;;;;;7.94;92.40;95948.02;105576;1301;22476;-82
2023/01/05 08:05:17;;;;;;;3.10;1.40;;;;;;;7.98;91.95;95961.40;105564;1302;22776;-81
2023/01/05 08:07:50;;;;;;;4.90;1.90;;;;;;;7.97;91.56;95981.84;105461;1296;62067;-81
2023/01/05 08:10:31;;;;;;;5.10;1.80;;;;;;;7.96;91.53;95988.02;105605;1302;22631;-81
2023/01/05 08:15:55;;;;;;;3.70;0.90;;;;;;;7.80;91.95;96015.01;105538;1302;22486;-81
2023/01/05 08:18:27;;;;;;;2.20;1.30;;;;;;;7.72;92.07;96017.05;105533;1298;46057;-81
2023/01/05 08:21:03;;;;;;;2.20;1.00;;;;;;;7.68;92.35;96049.48;105592;1284;22443;-81
2023/01/05 08:23:35;;;;;;;1.50;0.80;;;;;;;7.56;92.65;96055.30;105591;1295;25457;-80
2023/01/05 08:26:11;;;;;;;1.00;0.40;;;;;;;7.40;92.65;96070.31;105585;1301;22524;-80
2023/01/05 08:28:50;;;;;;;1.10;0.30;;;;;;;7.20;90.51;96049.14;105460;1298;44279;-81
2023/01/05 08:31:23;;;;;;;1.10;0.40;;;;;;;7.02;89.49;96065.55;105539;1301;22516;-81
2023/01/05 08:33:58;;;;;;;0.30;0.10;;;;;;;6.86;89.71;96056.38;105581;1278;22484;-80
2023/01/05 08:36:34;;;;;;;0.90;0.50;;;;;;;6.71;89.66;96065.05;105569;1303;25255;-80
2023/01/05 08:39:10;;;;;;;0.50;0.20;;;;;;;6.59;90.04;96054.36;105490;1302;102005;-80
2023/01/05 08:41:43;;;;;;;0.70;0.40;;;;;;;6.52;90.06;96063.45;105570;1303;22515;-80
2023/01/05 08:44:17;;;;;;;0.40;0.20;;;;;;;6.44;90.33;96067.70;105558;1294;22509;-80
2023/01/05 08:46:50;;;;;;;0.30;0.20;;;;;;;6.34;89.92;96086.15;105572;1288;25393;-80
2023/01/05 08:49:23;;;;;;;0.70;0.30;;;;;;;6.27;90.00;96061.09;105510;1302;53639;-80
2023/01/05 08:51:54;;;;;;;0.40;0.30;;;;;;;6.20;90.65;96081.25;105608;1302;22652;-80
2023/01/05 08:54:31;;;;;;;1.10;0.50;;;;;;;6.11;91.11;96087.67;105552;1302;22536;-80
2023/01/05 08:57:03;;;;;;;1.10;0.60;;;;;;;6.05;91.44;96083.52;105599;1280;22497;-81
2023/01/05 08:59:34;;;;;;;0.60;0.50;;;;;;;6.02;92.06;96086.17;105530;1293;24227;-79
2023/01/05 09:02:06;;;;;;;0.60;0.40;;;;;;;6.01;92.08;96091.91;105537;1302;22920;-79
2023/01/05 09:04:37;;;;;;;1.50;0.30;;;;;;;5.98;92.38;96084.08;105545;1302;22489;-80
2023/01/05 09:07:09;;;;;;;1.00;0.30;;;;;;;5.91;92.78;96080.74;105597;1302;22479;-80
2023/01/05 09:09:44;;;;;;;0.60;0.40;;;;;;;5.87;93.14;96079.60;105526;1302;32852;-81
2023/01/05 09:12:18;;;;;;;1.40;0.40;;;;;;;5.86;93.64;96082.76;105642;1288;24272;-80
2023/01/05 09:14:53;;;;;;;0.90;0.50;;;;;;;5.90;94.11;96090.46;105580;1297;22502;-80
2023/01/05 09:17:25;;;;;;;1.50;0.60;;;;;;;5.94;94.50;96087.55;105576;1302;22471;-79
2023/01/05 09:19:58;;;;;;;4.70;1.40;;;;;;;6.00;95.03;96096.55;105565;1302;23603;-81
2023/01/05 09:22:34;;;;;;;1.80;0.40;;;;;;;6.03;95.01;96095.23;105594;1294;22512;-80
2023/01/05 09:25:07;;;;;;;1.90;0.80;;;;;;;6.05;95.20;96089.29;105359;1299;22480;-80
2023/01/05 09:27:41;;;;;;;1.10;0.70;;;;;;;6.08;95.23;96103.52;105372;1283;39637;-79
2023/01/05 09:30:16;;;;;;;0.60;0.40;;;;;;;6.12;95.34;96086.35;105353;1302;22527;-79
2023/01/05 09:32:47;;;;;;;0.80;0.30;;;;;;;6.19;94.90;96075.94;105598;1294;24253;-80
2023/01/05 09:35:19;;;;;;;1.20;0.50;;;;;;;6.21;94.61;96067.47;105578;1301;22501;-80
2023/01/05 09:37:51;;;;;;;2.00;0.90;;;;;;;6.27;94.70;96053.98;105557;1281;36976;-79
2023/01/05 09:40:22;;;;;;;2.50;1.00;;;;;;;6.37;94.70;96068.52;105567;1277;22443;-79
2023/01/05 09:42:55;;;;;;;2.10;0.70;;;;;;;6.46;94.80;96064.08;105598;1302;24424;-80
2023/01/05 09:45:28;;;;;;;4.30;0.70;;;;;;;6.54;94.51;96054.39;105595;1294;22524;-79
2023/01/05 09:48:04;;;;;;;1.20;0.80;;;;;;;6.64;94.38;96062.73;105507;1277;33157;-80
2023/01/05 09:50:35;;;;;;;4.30;1.40;;;;;;;6.73;94.30;96061.77;105588;1287;25383;-79
2023/01/05 09:53:08;;;;;;;1.20;0.80;;;;;;;6.77;93.97;96056.19;105555;1300;22513;-80
2023/01/05 09:55:44;;;;;;;2.60;1.40;;;;;;;6.78;93.75;96058.09;105580;1302;22563;-80
2023/01/05 09:58:19;;;;;;;4.10;1.70;;;;;;;6.79;93.41;96059.88;105506;1295;53829;-80
2023/01/05 10:01:05;;;;;;;2.90;1.50;;;;;;;6.81;93.00;96044.42;105553;1303;22491;-80
2023/01/05 10:03:41;;;;;;;1.50;0.90;;;;;;;6.83;92.91;96058.84;105561;1290;23999;-81
2023/01/05 10:06:19;;;;;;;1.20;0.60;;;;;;;6.86;92.62;96054.20;105542;1304;22985;-81
2023/01/05 10:08:55;;;;;;;1.30;0.90;;;;;;;6.89;92.56;96045.52;105506;1297;37655;-80
2023/01/05 10:14:36;;;;;;;1.70;0.60;;;;;;;7.02;91.98;96052.20;105206;1306;22487;-81
2023/01/05 10:17:20;;;;;;;1.90;1.10;;;;;;;7.03;91.87;96050.25;105565;1302;22477;-81
2023/01/05 10:19:56;;;;;;;1.40;0.50;;;;;;;7.08;91.68;96053.36;105509;1302;59489;-81
2023/01/05 10:22:46;;;;;;;2.50;0.80;;;;;;;7.09;91.52;96045.61;105554;1302;22547;-81
2023/01/05 10:25:29;;;;;;;6.10;2.20;;;;;;;7.08;91.68;96046.55;105780;1300;22515;-81
2023/01/05 10:28:20;;;;;;;3.10;1.70;;;;;;;7.10;91.55;96050.19;105587;1296;66998;-81
2023/01/05 10:30:58;;;;;;;2.40;1.00;;;;;;;7.12;91.62;96051.80;105594;1286;22629;-80
2023/01/05 10:33:47;;;;;;;1.60;0.60;;;;;;;7.17;91.54;96043.15;105809;1275;22551;-81
2023/01/05 10:36:37;;;;;;;1.70;1.10;;;;;;;7.24;91.35;96039.27;105600;1302;22591;-81
2023/01/05 10:39:25;;;;;;;10.40;1.70;;;;;;;7.30;91.05;96038.86;105536;1302;47924;-81
2023/01/05 10:42:10;;;;;;;1.80;0.90;;;;;;;7.37;90.79;96033.94;105654;1287;22474;-81
2023/01/05 10:44:53;;;;;;;3.00;1.30;;;;;;;7.43;90.29;96037.43;105616;1288;22723;-81
2023/01/05 10:47:26;;;;;;;3.30;1.00;;;;;;;7.45;90.54;96038.52;105619;1284;22477;-81
2023/01/05 10:50:01;;;;;;;1.90;0.70;;;;;;;7.44;89.86;96030.09;105597;1302;25436;-81
2023/01/05 10:52:32;;;;;;;3.50;1.00;;;;;;;7.43;89.82;96033.47;105599;1302;22463;-81
2023/01/05 10:55:11;;;;;;;1.50;1.00;;;;;;;7.48;89.51;96025.50;105610;1287;22466;-81
2023/01/05 10:57:43;;;;;;;1.40;0.80;;;;;;;7.55;89.49;96033.47;105547;1302;62144;-81
2023/01/05 11:00:20;;;;;;;1.30;0.50;;;;;;;7.56;89.27;96012.62;105608;1302;22513;-80
2023/01/05 11:03:06;;;;;;;1.20;0.60;;;;;;;7.60;88.48;96006.69;105612;1294;22517;-81
2023/01/05 11:05:44;;;;;;;1.20;0.70;;;;;;;7.62;87.59;96018.61;105605;1288;22573;-80
2023/01/05 11:08:22;;;;;;;1.20;0.60;;;;;;;7.61;87.22;96017.09;105368;1301;290883;-79
2023/01/05 11:10:56;;;;;;;1.30;0.90;;;;;;;7.60;87.16;96021.36;105637;1288;25086;-80
2023/01/05 11:13:35;;;;;;;2.90;0.70;;;;;;;7.58;87.00;96026.48;105606;1302;22492;-80
2023/01/05 11:16:13;;;;;;;2.90;1.30;;;;;;;7.59;87.04;96028.59;105598;1302;22460;-80
2023/01/05 11:19:03;;;;;;;2.30;0.50;;;;;;;7.63;86.97;96030.00;105607;1300;35409;-80
2023/01/05 11:21:47;;;;;;;2.80;1.10;;;;;;;7.68;86.64;96029.59;105518;1298;23891;-80
2023/01/05 11:24:36;;;;;;;2.50;1.20;;;;;;;7.71;86.19;96021.60;105602;1275;24251;-80
2023/01/05 11:27:24;;;;;;;1.70;0.80;;;;;;;7.71;85.79;96023.02;105673;1300;25603;-80
2023/01/05 11:30:23;;;;;;;3.40;0.80;;;;;;;7.71;85.15;96008.40;105621;1300;22490;-80
2023/01/05 11:32:57;;;;;;;2.00;0.70;;;;;;;7.76;84.49;96010.92;105749;1277;22525;-80
2023/01/05 11:35:35;;;;;;;4.00;1.20;;;;;;;7.80;83.66;96000.50;105620;1288;24636;-80
2023/01/05 11:38:23;;;;;;;1.10;0.50;;;;;;;7.84;83.92;96021.62;105744;1284;47389;-81
2023/01/05 11:41:01;;;;;;;1.00;0.40;;;;;;;7.88;84.11;96014.52;105590;1296;22491;-80
2023/01/05 11:43:39;;;;;;;0.30;0.30;;;;;;;7.90;84.00;96017.05;105615;1302;22705;-80
2023/01/05 11:46:11;;;;;;;1.10;0.50;;;;;;;7.92;83.53;96006.91;105569;1280;24260;-80
2023/01/05 11:48:55;;;;;;;2.90;1.30;;;;;;;7.93;83.26;95996.49;105538;1294;45039;-80
2023/01/05 11:51:41;;;;;;;2.80;1.00;;;;;;;7.92;83.71;96004.05;105615;1302;22594;-80
2023/01/05 11:54:41;;;;;;;3.00;0.90;;;;;;;7.91;83.76;96000.84;105645;1297;22466;-80
2023/01/05 11:57:21;;;;;;;2.10;0.70;;;;;;;7.93;82.79;96000.30;105334;1306;25261;-80
2023/01/05 11:59:57;;;;;;;2.80;0.80;;;;;;;7.96;82.42;95996.04;105662;1300;64443;-80
2023/01/05 12:02:57;;;;;;;0.70;0.50;;;;;;;7.97;82.36;96004.48;105668;1300;22512;-80
2023/01/05 12:05:50;;;;;;;1.50;0.80;;;;;;;7.97;82.49;96008.75;105599;1296;22466;-81
2023/01/05 12:08:31;;;;;;;4.70;1.30;;;;;;;7.98;82.25;96009.64;105571;1294;52430;-80
2023/01/05 12:11:26;;;;;;;3.20;1.10;;;;;;;7.98;82.34;96012.44;105592;1302;23645;-81
2023/01/05 12:14:18;;;;;;;5.90;1.50;;;;;;;7.98;81.91;96001.35;105547;1302;22918;-80
2023/01/05 12:16:57;;;;;;;2.40;1.00;;;;;;;8.02;81.23;96001.74;105617;1295;22505;-80
2023/01/05 12:19:49;;;;;;;2.80;1.10;;;;;;;8.03;81.57;96003.34;105581;1302;58516;-80
2023/01/05 12:22:50;;;;;;;1.80;0.80;;;;;;;8.00;81.37;96002.91;105588;1299;25384;-80
2023/01/05 12:25:34;;;;;;;4.20;1.10;;;;;;;8.06;80.70;95995.55;105624;1288;24933;-80
2023/01/05 12:28:26;;;;;;;1.70;0.80;;;;;;;8.12;80.54;95988.52;105585;1297;26583;-80
2023/01/05 12:31:04;;;;;;;3.20;0.90;;;;;;;8.17;80.08;95993.92;105553;1297;22488;-81
2023/01/05 12:34:01;;;;;;;3.30;1.40;;;;;;;8.19;80.36;95988.89;105651;1287;22538;-80
2023/01/05 12:36:52;;;;;;;3.40;0.60;;;;;;;8.20;79.41;95982.96;105614;1302;22490;-81
2023/01/05 12:39:56;;;;;;;3.70;1.40;;;;;;;8.23;78.70;95979.14;105511;1294;60513;-80
2023/01/05 12:42:39;;;;;;;4.60;1.20;;;;;;;8.24;78.82;95982.71;105402;1302;22509;-81
2023/01/05 12:45:41;;;;;;;2.20;1.10;;;;;;;8.25;78.19;95978.63;105579;1271;22523;-81
2023/01/05 12:48:19;;;;;;;2.70;1.20;;;;;;;8.24;78.06;95992.05;105461;1302;44254;-81